sensor_id;sensor_type;location;lat;lon;timestamp;temperature;humidity
54178;DHT22;40085;53.004;6.770;2023-05-10T00:01:23;13.10;99.90
54178;DHT22;40085;53.004;6.770;2023-05-10T00:03:48;13.10;99.90
54178;DHT22;40085;53.004;6.770;2023-05-10T00:06:14;13.10;99.90
54178;DHT22;40085;53.004;6.770;2023-05-10T00:08:40;13.00;99.90
54178;DHT22;40085;53.004;6.770;2023-05-10T00:11:05;14.60;99.90
54178;DHT22;40085;53.004;6.770;2023-05-10T00:13:31;12.90;99.90
54178;DHT22;40085;53.004;6.770;2023-05-10T00:15:57;12.90;99.90
54178;DHT22;40085;53.004;6.770;2023-05-10T00:18:22;12.80;99.90
54178;DHT22;40085;53.004;6.770;2023-05-10T00:20:48;12.80;99.90
54178;DHT22;40085;53.004;6.770;2023-05-10T00:23:14;12.80;99.90
54178;DHT22;40085;53.004;6.770;2023-05-10T00:25:40;12.70;99.90
54178;DHT22;40085;53.004;6.770;2023-05-10T00:28:05;12.70;99.90
54178;DHT22;40085;53.004;6.770;2023-05-10T00:30:31;12.70;99.90
54178;DHT22;40085;53.004;6.770;2023-05-10T00:32:56;12.70;99.90
54178;DHT22;40085;53.004;6.770;2023-05-10T00:35:22;12.70;99.90
54178;DHT22;40085;53.004;6.770;2023-05-10T00:37:48;12.70;99.90
54178;DHT22;40085;53.004;6.770;2023-05-10T00:40:14;12.70;99.90
54178;DHT22;40085;53.004;6.770;2023-05-10T00:42:39;12.70;99.90
54178;DHT22;40085;53.004;6.770;2023-05-10T00:45:06;12.70;99.90
54178;DHT22;40085;53.004;6.770;2023-05-10T00:47:32;12.70;99.90
54178;DHT22;40085;53.004;6.770;2023-05-10T00:49:58;12.70;99.90
54178;DHT22;40085;53.004;6.770;2023-05-10T00:52:26;12.70;99.90
54178;DHT22;40085;53.004;6.770;2023-05-10T00:54:52;12.70;99.90
54178;DHT22;40085;53.004;6.770;2023-05-10T00:57:18;12.70;99.90
54178;DHT22;40085;53.004;6.770;2023-05-10T00:59:44;12.70;99.90
54178;DHT22;40085;53.004;6.770;2023-05-10T01:02:10;12.70;99.90
54178;DHT22;40085;53.004;6.770;2023-05-10T01:04:36;12.70;99.90
54178;DHT22;40085;53.004;6.770;2023-05-10T01:07:02;12.70;99.90
54178;DHT22;40085;53.004;6.770;2023-05-10T01:09:28;12.70;99.90
54178;DHT22;40085;53.004;6.770;2023-05-10T01:11:54;12.70;99.90
54178;DHT22;40085;53.004;6.770;2023-05-10T01:14:20;12.70;99.90
54178;DHT22;40085;53.004;6.770;2023-05-10T01:16:48;12.70;99.90
54178;DHT22;40085;53.004;6.770;2023-05-10T01:19:24;12.70;99.90
54178;DHT22;40085;53.004;6.770;2023-05-10T01:35:42;12.60;99.90
54178;DHT22;40085;53.004;6.770;2023-05-10T01:38:19;12.60;99.90
54178;DHT22;40085;53.004;6.770;2023-05-10T01:40:50;12.60;99.90
54178;DHT22;40085;53.004;6.770;2023-05-10T01:43:26;12.60;99.90
54178;DHT22;40085;53.004;6.770;2023-05-10T01:46:07;12.60;99.90
54178;DHT22;40085;53.004;6.770;2023-05-10T01:48:47;12.60;99.90
54178;DHT22;40085;53.004;6.770;2023-05-10T01:51:15;12.60;99.90
54178;DHT22;40085;53.004;6.770;2023-05-10T01:53:43;12.60;99.90
54178;DHT22;40085;53.004;6.770;2023-05-10T01:56:11;12.60;99.90
54178;DHT22;40085;53.004;6.770;2023-05-10T01:58:39;13.30;99.90
54178;DHT22;40085;53.004;6.770;2023-05-10T02:01:07;12.50;99.90
54178;DHT22;40085;53.004;6.770;2023-05-10T02:03:34;12.50;99.90
54178;DHT22;40085;53.004;6.770;2023-05-10T02:06:01;14.20;99.90
54178;DHT22;40085;53.004;6.770;2023-05-10T02:08:29;12.50;99.90
54178;DHT22;40085;53.004;6.770;2023-05-10T02:10:56;12.50;99.90
54178;DHT22;40085;53.004;6.770;2023-05-10T02:13:23;13.10;99.90
54178;DHT22;40085;53.004;6.770;2023-05-10T02:15:50;12.50;99.90
54178;DHT22;40085;53.004;6.770;2023-05-10T02:18:16;12.50;99.90
54178;DHT22;40085;53.004;6.770;2023-05-10T02:20:45;12.50;99.90
54178;DHT22;40085;53.004;6.770;2023-05-10T02:23:12;12.50;99.90
54178;DHT22;40085;53.004;6.770;2023-05-10T02:25:39;13.20;99.90
54178;DHT22;40085;53.004;6.770;2023-05-10T02:28:06;12.50;99.90
54178;DHT22;40085;53.004;6.770;2023-05-10T02:30:34;12.50;99.90
54178;DHT22;40085;53.004;6.770;2023-05-10T02:33:01;12.50;99.90
54178;DHT22;40085;53.004;6.770;2023-05-10T02:35:27;12.50;99.90
54178;DHT22;40085;53.004;6.770;2023-05-10T02:37:54;12.40;99.90
54178;DHT22;40085;53.004;6.770;2023-05-10T02:40:21;12.50;99.90
54178;DHT22;40085;53.004;6.770;2023-05-10T02:42:48;12.40;99.90
54178;DHT22;40085;53.004;6.770;2023-05-10T02:45:21;12.40;99.90
54178;DHT22;40085;53.004;6.770;2023-05-10T02:47:48;12.40;99.90
54178;DHT22;40085;53.004;6.770;2023-05-10T02:50:15;12.40;99.90
54178;DHT22;40085;53.004;6.770;2023-05-10T02:52:44;12.40;99.90
54178;DHT22;40085;53.004;6.770;2023-05-10T02:55:13;12.40;99.90
54178;DHT22;40085;53.004;6.770;2023-05-10T02:57:48;12.40;99.90
54178;DHT22;40085;53.004;6.770;2023-05-10T03:00:16;12.40;99.90
54178;DHT22;40085;53.004;6.770;2023-05-10T03:02:41;12.40;99.90
54178;DHT22;40085;53.004;6.770;2023-05-10T03:05:07;12.40;99.90
54178;DHT22;40085;53.004;6.770;2023-05-10T03:07:33;12.40;99.90
54178;DHT22;40085;53.004;6.770;2023-05-10T03:09:59;12.40;99.90
54178;DHT22;40085;53.004;6.770;2023-05-10T03:18:22;12.40;99.90
54178;DHT22;40085;53.004;6.770;2023-05-10T03:20:50;12.40;99.90
54178;DHT22;40085;53.004;6.770;2023-05-10T03:23:27;12.40;99.90
54178;DHT22;40085;53.004;6.770;2023-05-10T03:25:54;12.30;99.90
54178;DHT22;40085;53.004;6.770;2023-05-10T03:28:20;12.30;99.90
54178;DHT22;40085;53.004;6.770;2023-05-10T03:30:47;12.40;99.90
54178;DHT22;40085;53.004;6.770;2023-05-10T03:33:13;12.40;99.90
54178;DHT22;40085;53.004;6.770;2023-05-10T03:35:39;12.30;99.90
54178;DHT22;40085;53.004;6.770;2023-05-10T03:38:04;12.30;99.90
54178;DHT22;40085;53.004;6.770;2023-05-10T03:40:30;12.40;99.90
54178;DHT22;40085;53.004;6.770;2023-05-10T03:42:58;12.40;99.90
54178;DHT22;40085;53.004;6.770;2023-05-10T03:45:24;12.40;99.90
54178;DHT22;40085;53.004;6.770;2023-05-10T03:47:50;12.30;99.90
54178;DHT22;40085;53.004;6.770;2023-05-10T03:50:15;12.30;99.90
54178;DHT22;40085;53.004;6.770;2023-05-10T03:52:41;12.30;99.90
54178;DHT22;40085;53.004;6.770;2023-05-10T03:55:07;12.30;99.90
54178;DHT22;40085;53.004;6.770;2023-05-10T03:57:33;12.30;99.90
54178;DHT22;40085;53.004;6.770;2023-05-10T03:59:59;12.30;99.90
54178;DHT22;40085;53.004;6.770;2023-05-10T04:02:25;12.30;99.90
54178;DHT22;40085;53.004;6.770;2023-05-10T04:04:50;12.30;99.90
54178;DHT22;40085;53.004;6.770;2023-05-10T04:07:16;13.00;99.90
54178;DHT22;40085;53.004;6.770;2023-05-10T04:09:42;13.10;99.90
54178;DHT22;40085;53.004;6.770;2023-05-10T04:12:07;13.00;99.90
54178;DHT22;40085;53.004;6.770;2023-05-10T04:14:33;12.30;99.90
54178;DHT22;40085;53.004;6.770;2023-05-10T04:16:58;13.10;99.90
54178;DHT22;40085;53.004;6.770;2023-05-10T04:19:28;12.10;99.90
54178;DHT22;40085;53.004;6.770;2023-05-10T04:21:54;12.30;99.90
54178;DHT22;40085;53.004;6.770;2023-05-10T04:24:19;12.30;99.90
54178;DHT22;40085;53.004;6.770;2023-05-10T04:26:45;12.30;99.90
54178;DHT22;40085;53.004;6.770;2023-05-10T04:29:11;12.30;99.90
54178;DHT22;40085;53.004;6.770;2023-05-10T04:31:36;12.30;99.90
54178;DHT22;40085;53.004;6.770;2023-05-10T04:34:02;12.30;99.90
54178;DHT22;40085;53.004;6.770;2023-05-10T04:36:27;12.30;99.90
54178;DHT22;40085;53.004;6.770;2023-05-10T04:38:54;12.30;99.90
54178;DHT22;40085;53.004;6.770;2023-05-10T04:41:19;12.30;99.90
54178;DHT22;40085;53.004;6.770;2023-05-10T04:43:46;12.30;99.90
54178;DHT22;40085;53.004;6.770;2023-05-10T04:46:12;12.30;99.90
54178;DHT22;40085;53.004;6.770;2023-05-10T04:48:37;12.30;99.90
54178;DHT22;40085;53.004;6.770;2023-05-10T04:51:03;12.30;99.90
54178;DHT22;40085;53.004;6.770;2023-05-10T04:53:29;12.20;99.90
54178;DHT22;40085;53.004;6.770;2023-05-10T04:55:55;12.30;99.90
54178;DHT22;40085;53.004;6.770;2023-05-10T04:58:20;12.30;99.90
54178;DHT22;40085;53.004;6.770;2023-05-10T05:00:46;12.30;99.90
54178;DHT22;40085;53.004;6.770;2023-05-10T05:03:12;12.30;99.90
54178;DHT22;40085;53.004;6.770;2023-05-10T05:05:37;12.30;99.90
54178;DHT22;40085;53.004;6.770;2023-05-10T05:08:03;12.30;99.90
54178;DHT22;40085;53.004;6.770;2023-05-10T05:10:29;12.20;99.90
54178;DHT22;40085;53.004;6.770;2023-05-10T05:12:55;12.30;99.90
54178;DHT22;40085;53.004;6.770;2023-05-10T05:15:21;12.30;99.90
54178;DHT22;40085;53.004;6.770;2023-05-10T05:17:47;12.30;99.90
54178;DHT22;40085;53.004;6.770;2023-05-10T05:20:12;12.30;99.90
54178;DHT22;40085;53.004;6.770;2023-05-10T05:22:38;12.30;99.90
54178;DHT22;40085;53.004;6.770;2023-05-10T05:25:04;12.40;99.90
54178;DHT22;40085;53.004;6.770;2023-05-10T05:27:31;12.30;99.90
54178;DHT22;40085;53.004;6.770;2023-05-10T05:29:57;12.30;99.90
54178;DHT22;40085;53.004;6.770;2023-05-10T05:32:23;12.30;99.90
54178;DHT22;40085;53.004;6.770;2023-05-10T05:34:49;12.80;99.90
54178;DHT22;40085;53.004;6.770;2023-05-10T05:37:15;12.30;99.90
54178;DHT22;40085;53.004;6.770;2023-05-10T05:39:42;12.30;99.90
54178;DHT22;40085;53.004;6.770;2023-05-10T05:42:08;12.30;99.90
54178;DHT22;40085;53.004;6.770;2023-05-10T05:44:34;12.30;99.90
54178;DHT22;40085;53.004;6.770;2023-05-10T05:47:00;12.30;99.90
54178;DHT22;40085;53.004;6.770;2023-05-10T05:49:26;13.20;99.90
54178;DHT22;40085;53.004;6.770;2023-05-10T05:51:51;12.30;99.90
54178;DHT22;40085;53.004;6.770;2023-05-10T05:54:17;12.30;99.90
54178;DHT22;40085;53.004;6.770;2023-05-10T05:56:42;12.30;99.90
54178;DHT22;40085;53.004;6.770;2023-05-10T05:59:09;12.30;99.90
54178;DHT22;40085;53.004;6.770;2023-05-10T06:01:35;12.30;99.90
54178;DHT22;40085;53.004;6.770;2023-05-10T06:04:01;12.70;99.90
54178;DHT22;40085;53.004;6.770;2023-05-10T06:06:27;12.30;99.90
54178;DHT22;40085;53.004;6.770;2023-05-10T06:08:53;12.30;99.90
54178;DHT22;40085;53.004;6.770;2023-05-10T06:11:19;12.30;99.90
54178;DHT22;40085;53.004;6.770;2023-05-10T06:13:46;12.30;99.90
54178;DHT22;40085;53.004;6.770;2023-05-10T06:16:12;13.50;99.90
54178;DHT22;40085;53.004;6.770;2023-05-10T06:18:38;12.30;99.90
54178;DHT22;40085;53.004;6.770;2023-05-10T06:21:04;12.30;99.90
54178;DHT22;40085;53.004;6.770;2023-05-10T06:23:30;12.30;99.90
54178;DHT22;40085;53.004;6.770;2023-05-10T06:25:55;12.30;99.90
54178;DHT22;40085;53.004;6.770;2023-05-10T06:28:21;13.60;99.90
54178;DHT22;40085;53.004;6.770;2023-05-10T06:30:46;12.30;99.90
54178;DHT22;40085;53.004;6.770;2023-05-10T06:33:12;13.30;99.90
54178;DHT22;40085;53.004;6.770;2023-05-10T06:35:37;12.30;99.90
54178;DHT22;40085;53.004;6.770;2023-05-10T06:38:04;12.30;99.90
54178;DHT22;40085;53.004;6.770;2023-05-10T06:40:30;12.20;99.90
54178;DHT22;40085;53.004;6.770;2023-05-10T06:42:55;12.30;99.90
54178;DHT22;40085;53.004;6.770;2023-05-10T06:45:21;12.30;99.90
54178;DHT22;40085;53.004;6.770;2023-05-10T06:47:46;12.30;99.90
54178;DHT22;40085;53.004;6.770;2023-05-10T06:50:12;12.30;99.90
54178;DHT22;40085;53.004;6.770;2023-05-10T06:52:38;12.40;99.90
54178;DHT22;40085;53.004;6.770;2023-05-10T06:55:04;12.30;99.90
54178;DHT22;40085;53.004;6.770;2023-05-10T06:57:30;12.40;99.90
54178;DHT22;40085;53.004;6.770;2023-05-10T07:00:00;12.30;99.90
54178;DHT22;40085;53.004;6.770;2023-05-10T07:02:26;12.30;99.90
54178;DHT22;40085;53.004;6.770;2023-05-10T07:04:52;12.30;99.90
54178;DHT22;40085;53.004;6.770;2023-05-10T07:07:18;12.30;99.90
54178;DHT22;40085;53.004;6.770;2023-05-10T07:09:44;12.30;99.90
54178;DHT22;40085;53.004;6.770;2023-05-10T07:12:10;12.30;99.90
54178;DHT22;40085;53.004;6.770;2023-05-10T07:14:36;12.30;99.90
54178;DHT22;40085;53.004;6.770;2023-05-10T07:17:01;12.30;99.90
54178;DHT22;40085;53.004;6.770;2023-05-10T07:19:27;12.30;99.90
54178;DHT22;40085;53.004;6.770;2023-05-10T07:21:54;12.20;99.90
54178;DHT22;40085;53.004;6.770;2023-05-10T07:24:20;12.30;99.90
54178;DHT22;40085;53.004;6.770;2023-05-10T07:26:46;13.70;99.90
54178;DHT22;40085;53.004;6.770;2023-05-10T07:29:11;12.20;99.90
54178;DHT22;40085;53.004;6.770;2023-05-10T07:31:37;12.30;99.90
54178;DHT22;40085;53.004;6.770;2023-05-10T07:34:03;12.30;99.90
54178;DHT22;40085;53.004;6.770;2023-05-10T07:36:28;12.30;99.90
54178;DHT22;40085;53.004;6.770;2023-05-10T07:38:54;12.40;99.90
54178;DHT22;40085;53.004;6.770;2023-05-10T07:41:19;12.40;99.90
54178;DHT22;40085;53.004;6.770;2023-05-10T07:43:46;12.40;99.90
54178;DHT22;40085;53.004;6.770;2023-05-10T07:46:12;12.40;99.90
54178;DHT22;40085;53.004;6.770;2023-05-10T07:48:37;12.40;99.90
54178;DHT22;40085;53.004;6.770;2023-05-10T07:51:03;12.50;99.90
54178;DHT22;40085;53.004;6.770;2023-05-10T07:53:28;12.50;99.90
54178;DHT22;40085;53.004;6.770;2023-05-10T07:55:57;12.60;99.90
54178;DHT22;40085;53.004;6.770;2023-05-10T07:58:26;12.70;99.90
54178;DHT22;40085;53.004;6.770;2023-05-10T08:00:52;12.70;99.90
54178;DHT22;40085;53.004;6.770;2023-05-10T08:03:17;12.70;99.90
54178;DHT22;40085;53.004;6.770;2023-05-10T08:05:43;13.20;99.90
54178;DHT22;40085;53.004;6.770;2023-05-10T08:08:09;12.80;99.90
54178;DHT22;40085;53.004;6.770;2023-05-10T08:10:34;12.80;99.90
54178;DHT22;40085;53.004;6.770;2023-05-10T08:13:00;13.80;99.90
54178;DHT22;40085;53.004;6.770;2023-05-10T08:15:26;12.70;99.90
54178;DHT22;40085;53.004;6.770;2023-05-10T08:17:52;12.70;99.90
54178;DHT22;40085;53.004;6.770;2023-05-10T08:20:17;14.50;99.90
54178;DHT22;40085;53.004;6.770;2023-05-10T08:22:45;12.70;99.90
54178;DHT22;40085;53.004;6.770;2023-05-10T08:25:11;12.60;99.90
54178;DHT22;40085;53.004;6.770;2023-05-10T08:27:36;12.60;99.90
54178;DHT22;40085;53.004;6.770;2023-05-10T08:30:02;12.70;99.90
54178;DHT22;40085;53.004;6.770;2023-05-10T08:32:28;12.60;99.90
54178;DHT22;40085;53.004;6.770;2023-05-10T08:34:53;12.70;99.90
54178;DHT22;40085;53.004;6.770;2023-05-10T08:37:19;12.70;99.90
54178;DHT22;40085;53.004;6.770;2023-05-10T08:39:45;12.70;99.90
54178;DHT22;40085;53.004;6.770;2023-05-10T08:42:16;12.70;99.90
54178;DHT22;40085;53.004;6.770;2023-05-10T08:44:47;13.20;99.90
54178;DHT22;40085;53.004;6.770;2023-05-10T08:47:15;13.40;99.90
54178;DHT22;40085;53.004;6.770;2023-05-10T08:49:41;12.70;99.90
54178;DHT22;40085;53.004;6.770;2023-05-10T08:52:11;12.70;99.90
54178;DHT22;40085;53.004;6.770;2023-05-10T08:54:38;12.50;99.90
54178;DHT22;40085;53.004;6.770;2023-05-10T08:57:04;12.60;99.90
54178;DHT22;40085;53.004;6.770;2023-05-10T08:59:30;13.00;99.90
54178;DHT22;40085;53.004;6.770;2023-05-10T09:01:58;12.90;99.90
54178;DHT22;40085;53.004;6.770;2023-05-10T09:04:24;12.80;99.90
54178;DHT22;40085;53.004;6.770;2023-05-10T09:06:50;13.20;99.90
54178;DHT22;40085;53.004;6.770;2023-05-10T09:09:17;12.90;99.90
54178;DHT22;40085;53.004;6.770;2023-05-10T09:11:43;12.90;99.90
54178;DHT22;40085;53.004;6.770;2023-05-10T09:14:10;12.80;99.90
54178;DHT22;40085;53.004;6.770;2023-05-10T09:16:37;12.80;99.90
54178;DHT22;40085;53.004;6.770;2023-05-10T09:19:03;12.70;99.90
54178;DHT22;40085;53.004;6.770;2023-05-10T09:21:29;12.70;99.90
54178;DHT22;40085;53.004;6.770;2023-05-10T09:23:55;12.80;99.90
54178;DHT22;40085;53.004;6.770;2023-05-10T09:26:24;13.10;99.90
54178;DHT22;40085;53.004;6.770;2023-05-10T09:28:54;12.90;99.90
54178;DHT22;40085;53.004;6.770;2023-05-10T09:31:20;13.00;99.90
54178;DHT22;40085;53.004;6.770;2023-05-10T09:33:47;13.90;99.90
54178;DHT22;40085;53.004;6.770;2023-05-10T09:36:13;13.10;99.90
54178;DHT22;40085;53.004;6.770;2023-05-10T09:38:50;13.20;99.90
54178;DHT22;40085;53.004;6.770;2023-05-10T09:41:23;13.20;99.90
54178;DHT22;40085;53.004;6.770;2023-05-10T09:43:49;14.20;99.90
54178;DHT22;40085;53.004;6.770;2023-05-10T09:46:15;13.40;99.90
54178;DHT22;40085;53.004;6.770;2023-05-10T09:48:43;13.40;99.90
54178;DHT22;40085;53.004;6.770;2023-05-10T09:51:09;13.50;99.90
54178;DHT22;40085;53.004;6.770;2023-05-10T09:53:35;13.20;99.90
54178;DHT22;40085;53.004;6.770;2023-05-10T09:56:01;13.50;99.90
54178;DHT22;40085;53.004;6.770;2023-05-10T10:00:53;13.70;99.90
54178;DHT22;40085;53.004;6.770;2023-05-10T10:03:21;13.60;99.90
54178;DHT22;40085;53.004;6.770;2023-05-10T10:05:47;13.60;99.90
54178;DHT22;40085;53.004;6.770;2023-05-10T10:08:14;13.60;99.90
54178;DHT22;40085;53.004;6.770;2023-05-10T10:10:40;13.60;99.90
54178;DHT22;40085;53.004;6.770;2023-05-10T10:13:06;14.60;99.90
54178;DHT22;40085;53.004;6.770;2023-05-10T10:15:34;13.50;99.90
54178;DHT22;40085;53.004;6.770;2023-05-10T10:18:00;13.60;99.90
54178;DHT22;40085;53.004;6.770;2023-05-10T10:20:26;13.70;99.90
54178;DHT22;40085;53.004;6.770;2023-05-10T10:22:52;13.90;99.90
54178;DHT22;40085;53.004;6.770;2023-05-10T10:25:19;14.10;99.90
54178;DHT22;40085;53.004;6.770;2023-05-10T10:33:55;14.10;99.90
54178;DHT22;40085;53.004;6.770;2023-05-10T10:36:12;14.00;99.90
54178;DHT22;40085;53.004;6.770;2023-05-10T10:38:55;13.90;99.90
54178;DHT22;40085;53.004;6.770;2023-05-10T10:41:35;14.60;99.90
54178;DHT22;40085;53.004;6.770;2023-05-10T10:52:22;13.60;99.90
54178;DHT22;40085;53.004;6.770;2023-05-10T10:55:22;13.70;99.90
54178;DHT22;40085;53.004;6.770;2023-05-10T10:57:56;13.70;99.90
54178;DHT22;40085;53.004;6.770;2023-05-10T11:00:30;13.70;99.90
54178;DHT22;40085;53.004;6.770;2023-05-10T11:03:05;13.70;99.90
54178;DHT22;40085;53.004;6.770;2023-05-10T11:05:41;13.70;99.90
54178;DHT22;40085;53.004;6.770;2023-05-10T11:08:08;13.80;99.90
54178;DHT22;40085;53.004;6.770;2023-05-10T11:10:34;13.90;99.90
54178;DHT22;40085;53.004;6.770;2023-05-10T11:13:02;14.00;99.90
54178;DHT22;40085;53.004;6.770;2023-05-10T11:15:39;14.60;99.90
54178;DHT22;40085;53.004;6.770;2023-05-10T11:18:25;14.20;99.90
54178;DHT22;40085;53.004;6.770;2023-05-10T11:20:58;14.30;99.90
54178;DHT22;40085;53.004;6.770;2023-05-10T11:23:47;14.30;99.90
54178;DHT22;40085;53.004;6.770;2023-05-10T11:26:13;14.30;99.90
54178;DHT22;40085;53.004;6.770;2023-05-10T11:28:46;14.70;99.90
54178;DHT22;40085;53.004;6.770;2023-05-10T11:31:16;14.30;99.90
54178;DHT22;40085;53.004;6.770;2023-05-10T11:33:46;14.20;99.90
54178;DHT22;40085;53.004;6.770;2023-05-10T11:36:14;14.20;99.90
54178;DHT22;40085;53.004;6.770;2023-05-10T11:38:40;14.00;99.90
54178;DHT22;40085;53.004;6.770;2023-05-10T11:41:08;14.30;99.90
54178;DHT22;40085;53.004;6.770;2023-05-10T11:43:35;14.30;99.90
54178;DHT22;40085;53.004;6.770;2023-05-10T11:46:02;14.20;99.90
54178;DHT22;40085;53.004;6.770;2023-05-10T11:48:29;14.30;99.90
54178;DHT22;40085;53.004;6.770;2023-05-10T11:50:55;14.20;99.90
54178;DHT22;40085;53.004;6.770;2023-05-10T11:53:22;14.20;99.90
54178;DHT22;40085;53.004;6.770;2023-05-10T11:55:48;14.30;99.90
54178;DHT22;40085;53.004;6.770;2023-05-10T11:58:14;14.40;99.90
54178;DHT22;40085;53.004;6.770;2023-05-10T12:00:39;14.50;99.90
54178;DHT22;40085;53.004;6.770;2023-05-10T12:03:05;14.60;99.90
54178;DHT22;40085;53.004;6.770;2023-05-10T12:05:34;14.80;99.90
54178;DHT22;40085;53.004;6.770;2023-05-10T12:08:14;14.80;99.90
54178;DHT22;40085;53.004;6.770;2023-05-10T12:10:40;14.90;99.90
54178;DHT22;40085;53.004;6.770;2023-05-10T12:13:06;14.80;99.90
54178;DHT22;40085;53.004;6.770;2023-05-10T12:15:35;14.70;99.90
54178;DHT22;40085;53.004;6.770;2023-05-10T12:18:01;14.80;99.90
54178;DHT22;40085;53.004;6.770;2023-05-10T12:20:28;14.80;99.90
54178;DHT22;40085;53.004;6.770;2023-05-10T12:22:55;14.70;99.90
54178;DHT22;40085;53.004;6.770;2023-05-10T12:25:22;14.60;99.90
54178;DHT22;40085;53.004;6.770;2023-05-10T12:27:53;14.30;99.90
54178;DHT22;40085;53.004;6.770;2023-05-10T12:30:23;14.50;99.90
54178;DHT22;40085;53.004;6.770;2023-05-10T12:32:49;14.40;99.90
54178;DHT22;40085;53.004;6.770;2023-05-10T12:35:15;14.20;99.90
54178;DHT22;40085;53.004;6.770;2023-05-10T12:37:42;14.30;99.90
54178;DHT22;40085;53.004;6.770;2023-05-10T12:40:10;14.30;99.90
54178;DHT22;40085;53.004;6.770;2023-05-10T12:42:37;14.30;99.90
54178;DHT22;40085;53.004;6.770;2023-05-10T12:45:05;14.30;99.90
54178;DHT22;40085;53.004;6.770;2023-05-10T12:47:32;14.30;99.90
54178;DHT22;40085;53.004;6.770;2023-05-10T12:49:59;14.40;99.90
54178;DHT22;40085;53.004;6.770;2023-05-10T12:52:25;13.90;99.90
54178;DHT22;40085;53.004;6.770;2023-05-10T12:54:51;14.60;99.90
54178;DHT22;40085;53.004;6.770;2023-05-10T12:57:17;14.60;99.90
54178;DHT22;40085;53.004;6.770;2023-05-10T12:59:43;14.80;99.90
54178;DHT22;40085;53.004;6.770;2023-05-10T13:02:09;14.40;99.90
54178;DHT22;40085;53.004;6.770;2023-05-10T13:04:35;14.90;99.90
54178;DHT22;40085;53.004;6.770;2023-05-10T13:07:05;15.40;99.90
54178;DHT22;40085;53.004;6.770;2023-05-10T13:09:30;14.70;99.90
54178;DHT22;40085;53.004;6.770;2023-05-10T13:11:56;15.00;99.90
54178;DHT22;40085;53.004;6.770;2023-05-10T13:14:22;15.00;99.90
54178;DHT22;40085;53.004;6.770;2023-05-10T13:16:47;15.60;99.90
54178;DHT22;40085;53.004;6.770;2023-05-10T13:19:14;15.50;99.90
54178;DHT22;40085;53.004;6.770;2023-05-10T13:21:39;15.20;99.90
54178;DHT22;40085;53.004;6.770;2023-05-10T13:24:07;15.00;99.90
54178;DHT22;40085;53.004;6.770;2023-05-10T13:26:32;15.00;99.90
54178;DHT22;40085;53.004;6.770;2023-05-10T13:28:58;15.00;99.90
54178;DHT22;40085;53.004;6.770;2023-05-10T13:31:24;14.80;99.90
54178;DHT22;40085;53.004;6.770;2023-05-10T13:33:49;14.90;99.90
54178;DHT22;40085;53.004;6.770;2023-05-10T13:36:15;15.10;99.90
54178;DHT22;40085;53.004;6.770;2023-05-10T13:38:41;15.00;99.90
54178;DHT22;40085;53.004;6.770;2023-05-10T13:41:06;15.10;99.90
54178;DHT22;40085;53.004;6.770;2023-05-10T13:43:32;15.10;99.90
54178;DHT22;40085;53.004;6.770;2023-05-10T13:45:57;15.20;99.90
54178;DHT22;40085;53.004;6.770;2023-05-10T13:48:23;15.00;99.90
54178;DHT22;40085;53.004;6.770;2023-05-10T13:50:48;15.10;99.90
54178;DHT22;40085;53.004;6.770;2023-05-10T13:53:15;14.90;99.90
54178;DHT22;40085;53.004;6.770;2023-05-10T13:55:41;14.90;99.90
54178;DHT22;40085;53.004;6.770;2023-05-10T13:58:06;14.80;99.90
54178;DHT22;40085;53.004;6.770;2023-05-10T14:00:32;14.90;99.90
54178;DHT22;40085;53.004;6.770;2023-05-10T14:02:58;15.80;99.90
54178;DHT22;40085;53.004;6.770;2023-05-10T14:05:23;14.80;99.90
54178;DHT22;40085;53.004;6.770;2023-05-10T14:07:50;14.80;99.90
54178;DHT22;40085;53.004;6.770;2023-05-10T14:10:16;14.80;99.90
54178;DHT22;40085;53.004;6.770;2023-05-10T14:12:41;14.90;99.90
54178;DHT22;40085;53.004;6.770;2023-05-10T14:15:07;14.90;99.90
54178;DHT22;40085;53.004;6.770;2023-05-10T14:17:35;15.00;99.90
54178;DHT22;40085;53.004;6.770;2023-05-10T14:20:01;15.10;99.90
54178;DHT22;40085;53.004;6.770;2023-05-10T14:22:27;15.20;99.90
54178;DHT22;40085;53.004;6.770;2023-05-10T14:24:53;15.20;99.90
54178;DHT22;40085;53.004;6.770;2023-05-10T14:27:18;15.30;99.90
54178;DHT22;40085;53.004;6.770;2023-05-10T14:29:44;15.00;99.90
54178;DHT22;40085;53.004;6.770;2023-05-10T14:32:10;18.50;99.90
54178;DHT22;40085;53.004;6.770;2023-05-10T14:34:36;15.30;99.90
54178;DHT22;40085;53.004;6.770;2023-05-10T14:37:02;15.40;99.90
54178;DHT22;40085;53.004;6.770;2023-05-10T14:39:27;15.40;99.90
54178;DHT22;40085;53.004;6.770;2023-05-10T14:41:55;15.20;99.90
54178;DHT22;40085;53.004;6.770;2023-05-10T14:44:21;15.10;99.90
54178;DHT22;40085;53.004;6.770;2023-05-10T14:46:46;15.40;99.90
54178;DHT22;40085;53.004;6.770;2023-05-10T14:49:13;15.30;99.90
54178;DHT22;40085;53.004;6.770;2023-05-10T14:51:39;15.20;99.90
54178;DHT22;40085;53.004;6.770;2023-05-10T14:54:04;15.20;99.90
54178;DHT22;40085;53.004;6.770;2023-05-10T14:56:31;15.20;99.90
54178;DHT22;40085;53.004;6.770;2023-05-10T14:58:57;14.90;99.90
54178;DHT22;40085;53.004;6.770;2023-05-10T15:01:22;15.30;99.90
54178;DHT22;40085;53.004;6.770;2023-05-10T15:03:48;15.00;99.90
54178;DHT22;40085;53.004;6.770;2023-05-10T15:06:14;15.30;99.90
54178;DHT22;40085;53.004;6.770;2023-05-10T15:08:41;14.80;99.90
54178;DHT22;40085;53.004;6.770;2023-05-10T15:11:06;15.20;99.90
54178;DHT22;40085;53.004;6.770;2023-05-10T15:13:32;15.30;99.90
54178;DHT22;40085;53.004;6.770;2023-05-10T15:15:58;15.30;99.90
54178;DHT22;40085;53.004;6.770;2023-05-10T15:18:24;15.40;99.90
54178;DHT22;40085;53.004;6.770;2023-05-10T15:20:49;15.40;99.90
54178;DHT22;40085;53.004;6.770;2023-05-10T15:23:15;15.40;99.90
54178;DHT22;40085;53.004;6.770;2023-05-10T15:25:41;16.30;99.90
54178;DHT22;40085;53.004;6.770;2023-05-10T15:28:06;15.40;99.90
54178;DHT22;40085;53.004;6.770;2023-05-10T15:30:32;15.40;99.90
54178;DHT22;40085;53.004;6.770;2023-05-10T15:32:57;15.30;99.90
54178;DHT22;40085;53.004;6.770;2023-05-10T15:35:23;15.30;99.90
54178;DHT22;40085;53.004;6.770;2023-05-10T15:37:49;15.30;99.90
54178;DHT22;40085;53.004;6.770;2023-05-10T15:40:15;15.30;99.90
54178;DHT22;40085;53.004;6.770;2023-05-10T15:42:41;15.60;99.90
54178;DHT22;40085;53.004;6.770;2023-05-10T15:45:07;15.40;99.90
54178;DHT22;40085;53.004;6.770;2023-05-10T15:47:32;15.40;99.90
54178;DHT22;40085;53.004;6.770;2023-05-10T15:49:58;15.40;99.90
54178;DHT22;40085;53.004;6.770;2023-05-10T15:52:24;15.40;99.90
54178;DHT22;40085;53.004;6.770;2023-05-10T15:54:50;15.40;99.90
54178;DHT22;40085;53.004;6.770;2023-05-10T15:57:15;15.30;99.90
54178;DHT22;40085;53.004;6.770;2023-05-10T15:59:41;15.40;99.90
54178;DHT22;40085;53.004;6.770;2023-05-10T16:02:08;16.30;99.90
54178;DHT22;40085;53.004;6.770;2023-05-10T16:04:36;15.40;99.90